Time;durP1;ratioP1;P1;durP2;ratioP2;P2;SDS_P1;SDS_P2;PMS_P1;PMS_P2;Temp;Humidity;BMP_temperature;BMP_pressure;BME280_temperature;BME280_humidity;BME280_pressure;Samples;Min_cycle;Max_cycle;Signal;HPM_P1;HPM_P2
2021/05/29 00:01:47;;;;;;;5.30;4.47;;;;;;;;;;6274238;22;20952;-82
2021/05/29 00:04:14;;;;;;;5.23;4.60;;;;;;;;;;6274176;22;20396;-84
2021/05/29 00:06:40;;;;;;;7.20;4.80;;;;;;;;;;6276748;22;20406;-82
2021/05/29 00:09:07;;;;;;;6.73;5.10;;;;;;;;;;6274212;22;20913;-84
2021/05/29 00:11:34;;;;;;;5.67;5.00;;;;;;;;;;6272429;22;20402;-82
2021/05/29 00:14:01;;;;;;;7.10;4.90;;;;;;;;;;6273007;22;20486;-81
2021/05/29 00:16:29;;;;;;;6.57;5.40;;;;;;;;;;6274511;22;20418;-82
2021/05/29 00:18:56;;;;;;;6.40;4.57;;;;;;;;;;6275816;22;20797;-80
2021/05/29 00:21:22;;;;;;;7.57;5.10;;;;;;;;;;6281152;22;20427;-80
2021/05/29 00:23:49;;;;;;;7.37;5.10;;;;;;;;;;6284959;22;20403;-81
2021/05/29 00:26:16;;;;;;;5.33;4.50;;;;;;;;;;6271457;22;20400;-81
2021/05/29 00:28:45;;;;;;;7.13;5.17;;;;;;;;;;6273274;22;20949;-82
2021/05/29 00:31:12;;;;;;;5.27;4.53;;;;;;;;;;6273957;22;20490;-82
2021/05/29 00:33:40;;;;;;;4.80;4.30;;;;;;;;;;6272892;22;20769;-84
2021/05/29 00:36:07;;;;;;;6.17;5.00;;;;;;;;;;6274789;22;20392;-82
2021/05/29 00:38:34;;;;;;;6.07;5.00;;;;;;;;;;6274892;22;21004;-83
2021/05/29 00:41:06;;;;;;;5.13;4.53;;;;;;;;;;6273974;22;20453;-84
2021/05/29 00:43:33;;;;;;;6.20;5.13;;;;;;;;;;6271391;22;20434;-82
2021/05/29 00:45:59;;;;;;;6.80;4.60;;;;;;;;;;6273238;22;20703;-83
2021/05/29 00:48:26;;;;;;;7.10;4.40;;;;;;;;;;6272793;22;20613;-82
2021/05/29 00:50:59;;;;;;;5.07;4.53;;;;;;;;;;6272943;22;20697;-84
2021/05/29 00:53:27;;;;;;;4.43;4.00;;;;;;;;;;6273953;22;20487;-81
2021/05/29 00:55:54;;;;;;;4.23;3.83;;;;;;;;;;6249480;22;20408;-80
2021/05/29 00:58:21;;;;;;;4.97;4.00;;;;;;;;;;6248029;22;20487;-81
2021/05/29 01:00:48;;;;;;;5.77;4.67;;;;;;;;;;6249920;22;20444;-82
2021/05/29 01:03:15;;;;;;;5.37;4.87;;;;;;;;;;6273086;22;20878;-81
2021/05/29 01:05:42;;;;;;;6.17;4.40;;;;;;;;;;6272330;22;20400;-81
2021/05/29 01:08:10;;;;;;;6.60;4.70;;;;;;;;;;6273205;22;20399;-81
2021/05/29 01:10:37;;;;;;;5.10;4.10;;;;;;;;;;6272678;22;20411;-83
2021/05/29 01:13:05;;;;;;;4.77;4.27;;;;;;;;;;6274009;22;20405;-81
2021/05/29 01:15:36;;;;;;;5.77;4.30;;;;;;;;;;6273716;22;20401;-82
2021/05/29 01:18:03;;;;;;;6.80;4.17;;;;;;;;;;6276685;22;20565;-82
2021/05/29 01:20:30;;;;;;;5.27;4.77;;;;;;;;;;6275386;22;20448;-80
2021/05/29 01:22:58;;;;;;;6.37;4.80;;;;;;;;;;6276603;22;20450;-82
2021/05/29 01:25:28;;;;;;;6.10;4.97;;;;;;;;;;6273308;22;20399;-82
2021/05/29 01:27:56;;;;;;;5.27;4.40;;;;;;;;;;6245726;22;20396;-82
2021/05/29 01:30:23;;;;;;;5.80;4.50;;;;;;;;;;6273085;22;20506;-81
2021/05/29 01:32:50;;;;;;;4.93;4.30;;;;;;;;;;6272550;22;20716;-83
2021/05/29 01:35:17;;;;;;;5.60;4.30;;;;;;;;;;6247086;22;20400;-82
2021/05/29 01:37:44;;;;;;;4.77;4.30;;;;;;;;;;6273649;22;20470;-83
2021/05/29 01:40:13;;;;;;;4.97;4.47;;;;;;;;;;6276325;22;20454;-82
2021/05/29 01:42:40;;;;;;;4.33;3.93;;;;;;;;;;6275537;22;20400;-82
2021/05/29 01:45:08;;;;;;;6.37;4.73;;;;;;;;;;6274634;22;20396;-81
2021/05/29 01:47:36;;;;;;;5.10;4.47;;;;;;;;;;6245767;22;20400;-81
2021/05/29 01:50:04;;;;;;;5.70;4.57;;;;;;;;;;6275528;22;20415;-81
2021/05/29 01:52:46;;;;;;;6.10;4.20;;;;;;;;;;6246649;22;20557;-80
2021/05/29 01:55:13;;;;;;;5.00;4.33;;;;;;;;;;6250701;22;20506;-80
2021/05/29 01:57:40;;;;;;;4.60;4.00;;;;;;;;;;6274620;22;20392;-81
2021/05/29 02:00:08;;;;;;;4.87;4.40;;;;;;;;;;6273490;22;20448;-83
2021/05/29 02:02:35;;;;;;;4.83;4.33;;;;;;;;;;6273922;22;20439;-81
2021/05/29 02:05:09;;;;;;;5.03;4.53;;;;;;;;;;6274185;22;20422;-81
2021/05/29 02:07:35;;;;;;;5.03;4.53;;;;;;;;;;6247830;22;20890;-79
2021/05/29 02:10:02;;;;;;;6.70;4.93;;;;;;;;;;6274047;22;20432;-80
2021/05/29 02:12:30;;;;;;;5.37;4.33;;;;;;;;;;6277209;22;20457;-80
2021/05/29 02:14:57;;;;;;;8.10;4.90;;;;;;;;;;6272762;22;20702;-81
2021/05/29 02:17:23;;;;;;;6.10;4.47;;;;;;;;;;6273259;22;20407;-81
2021/05/29 02:19:50;;;;;;;5.80;4.70;;;;;;;;;;6275008;22;20539;-80
2021/05/29 02:22:18;;;;;;;5.43;4.93;;;;;;;;;;6273530;22;20486;-80
2021/05/29 02:24:44;;;;;;;5.83;4.33;;;;;;;;;;6275243;22;20450;-83
2021/05/29 02:27:14;;;;;;;4.93;4.30;;;;;;;;;;6274205;22;20396;-80
2021/05/29 02:29:42;;;;;;;5.23;4.73;;;;;;;;;;6273853;22;20495;-80
2021/05/29 02:32:09;;;;;;;5.03;4.57;;;;;;;;;;6272579;22;20675;-80
2021/05/29 02:34:36;;;;;;;5.90;4.73;;;;;;;;;;6274657;22;20400;-80
2021/05/29 02:37:06;;;;;;;6.53;4.77;;;;;;;;;;6274442;22;20832;-81
2021/05/29 02:39:33;;;;;;;7.43;5.20;;;;;;;;;;6274280;22;20992;-81
2021/05/29 02:42:00;;;;;;;5.50;4.50;;;;;;;;;;6275316;22;20408;-81
2021/05/29 02:44:26;;;;;;;5.83;5.20;;;;;;;;;;6273129;22;20408;-81
2021/05/29 02:46:54;;;;;;;7.83;5.00;;;;;;;;;;6273600;22;20729;-80
2021/05/29 02:49:21;;;;;;;5.27;4.50;;;;;;;;;;6246605;22;20447;-81
2021/05/29 02:51:48;;;;;;;6.13;4.70;;;;;;;;;;6274178;22;20432;-80
2021/05/29 02:54:15;;;;;;;6.07;4.90;;;;;;;;;;6273646;22;20396;-81
2021/05/29 02:56:41;;;;;;;5.33;4.83;;;;;;;;;;6273921;22;20432;-82
2021/05/29 02:59:08;;;;;;;5.30;4.80;;;;;;;;;;6272564;22;20424;-81
2021/05/29 03:01:35;;;;;;;8.50;5.50;;;;;;;;;;6271472;22;20408;-81
2021/05/29 03:04:03;;;;;;;4.93;4.33;;;;;;;;;;6272580;22;20404;-80
2021/05/29 03:06:30;;;;;;;5.93;5.07;;;;;;;;;;6274527;22;20461;-80
2021/05/29 03:08:58;;;;;;;5.50;4.60;;;;;;;;;;6275805;22;20420;-81
2021/05/29 03:11:25;;;;;;;6.13;4.83;;;;;;;;;;6276145;22;20664;-80
2021/05/29 03:13:52;;;;;;;5.80;5.20;;;;;;;;;;6277339;22;20689;-80
2021/05/29 03:16:18;;;;;;;5.10;4.60;;;;;;;;;;6276141;22;20392;-80
2021/05/29 03:18:45;;;;;;;7.87;5.20;;;;;;;;;;6273604;22;20479;-81
2021/05/29 03:21:13;;;;;;;8.10;5.40;;;;;;;;;;6272409;22;20716;-82
2021/05/29 03:23:40;;;;;;;6.27;4.80;;;;;;;;;;6273596;22;20416;-81
2021/05/29 03:26:07;;;;;;;9.40;5.70;;;;;;;;;;6274588;22;20392;-81
2021/05/29 03:28:33;;;;;;;7.80;5.50;;;;;;;;;;6273384;22;20780;-81
2021/05/29 03:31:00;;;;;;;7.80;5.87;;;;;;;;;;6275595;22;20707;-81
2021/05/29 03:33:27;;;;;;;7.13;5.33;;;;;;;;;;6276043;22;20400;-83
2021/05/29 03:35:53;;;;;;;5.63;5.13;;;;;;;;;;6277102;22;20415;-81
2021/05/29 03:38:21;;;;;;;6.67;5.20;;;;;;;;;;6275816;22;20404;-83
2021/05/29 03:40:48;;;;;;;5.80;5.20;;;;;;;;;;6273482;22;20392;-82
2021/05/29 03:43:15;;;;;;;6.57;4.80;;;;;;;;;;6246529;22;20553;-82
2021/05/29 03:45:41;;;;;;;6.57;5.13;;;;;;;;;;6271913;22;20404;-82
2021/05/29 03:48:08;;;;;;;6.27;5.10;;;;;;;;;;6273883;22;20411;-82
2021/05/29 03:50:38;;;;;;;5.10;4.60;;;;;;;;;;6273038;22;20439;-83
2021/05/29 03:53:05;;;;;;;7.70;5.23;;;;;;;;;;6248424;22;20738;-84
2021/05/29 03:55:33;;;;;;;5.00;4.47;;;;;;;;;;6271369;22;20402;-81
2021/05/29 03:58:00;;;;;;;4.83;4.33;;;;;;;;;;6272073;22;20465;-80
2021/05/29 04:00:27;;;;;;;6.23;4.93;;;;;;;;;;6272623;22;20420;-80
2021/05/29 04:02:54;;;;;;;6.60;5.47;;;;;;;;;;6245587;22;20764;-81
2021/05/29 04:05:21;;;;;;;5.23;4.73;;;;;;;;;;6271569;22;20692;-80
2021/05/29 04:07:48;;;;;;;7.37;5.27;;;;;;;;;;6272752;22;20404;-83
2021/05/29 04:10:16;;;;;;;6.33;5.27;;;;;;;;;;6272105;22;20455;-82
2021/05/29 04:12:44;;;;;;;5.57;5.07;;;;;;;;;;6271590;22;20607;-80
2021/05/29 04:15:11;;;;;;;7.70;5.10;;;;;;;;;;6273850;22;20392;-81
2021/05/29 04:17:38;;;;;;;5.37;4.87;;;;;;;;;;6272971;22;20410;-80
2021/05/29 04:20:06;;;;;;;5.83;4.80;;;;;;;;;;6274227;22;20432;-81
2021/05/29 04:22:32;;;;;;;6.30;5.37;;;;;;;;;;6268220;22;20906;-81
2021/05/29 04:25:00;;;;;;;7.23;5.57;;;;;;;;;;6264371;22;21483;-80
2021/05/29 04:27:26;;;;;;;5.53;4.53;;;;;;;;;;6272310;22;20766;-80
2021/05/29 04:29:54;;;;;;;8.37;4.80;;;;;;;;;;6272510;22;20753;-80
2021/05/29 04:32:21;;;;;;;7.50;5.57;;;;;;;;;;6273757;22;20866;-81
2021/05/29 04:34:48;;;;;;;7.93;5.57;;;;;;;;;;6273274;22;20408;-81
2021/05/29 04:37:17;;;;;;;6.17;5.30;;;;;;;;;;6274253;22;20402;-81
2021/05/29 04:39:44;;;;;;;6.10;4.97;;;;;;;;;;6272035;22;20739;-84
2021/05/29 04:42:11;;;;;;;8.20;4.93;;;;;;;;;;6244723;22;20409;-82
2021/05/29 04:44:37;;;;;;;5.90;5.30;;;;;;;;;;6273956;22;20412;-81
2021/05/29 04:47:05;;;;;;;5.47;4.70;;;;;;;;;;6272317;22;20403;-81
2021/05/29 04:49:32;;;;;;;6.67;4.90;;;;;;;;;;6274136;22;20444;-81
2021/05/29 04:51:59;;;;;;;5.60;5.00;;;;;;;;;;6271191;22;20474;-81
2021/05/29 04:54:26;;;;;;;5.53;5.00;;;;;;;;;;6272248;22;20482;-81
2021/05/29 04:56:53;;;;;;;7.30;4.77;;;;;;;;;;6247390;22;20400;-81
2021/05/29 04:59:20;;;;;;;5.83;5.03;;;;;;;;;;6272690;22;20478;-81
2021/05/29 05:01:47;;;;;;;5.50;4.90;;;;;;;;;;6273182;22;20488;-81
2021/05/29 05:04:14;;;;;;;5.30;4.80;;;;;;;;;;6275409;22;20404;-82
2021/05/29 05:06:41;;;;;;;7.93;5.10;;;;;;;;;;6275629;22;20428;-81
2021/05/29 05:09:08;;;;;;;5.90;4.20;;;;;;;;;;6275665;22;20421;-81
2021/05/29 05:11:35;;;;;;;5.47;4.50;;;;;;;;;;6273648;22;20888;-83
2021/05/29 05:14:02;;;;;;;4.20;3.80;;;;;;;;;;6272655;22;20469;-84
2021/05/29 05:16:28;;;;;;;5.37;4.50;;;;;;;;;;6272180;22;20419;-83
2021/05/29 05:18:55;;;;;;;5.00;4.50;;;;;;;;;;6275260;22;20767;-83
2021/05/29 05:21:23;;;;;;;7.00;5.00;;;;;;;;;;6275814;22;20714;-85
2021/05/29 05:23:52;;;;;;;5.20;4.33;;;;;;;;;;6274942;22;20400;-84
2021/05/29 05:26:19;;;;;;;4.90;4.30;;;;;;;;;;6251064;22;20404;-82
2021/05/29 05:28:46;;;;;;;5.83;5.23;;;;;;;;;;6277389;22;20417;-82
2021/05/29 05:31:13;;;;;;;5.77;4.97;;;;;;;;;;6278420;22;20450;-82
2021/05/29 05:33:42;;;;;;;5.03;4.37;;;;;;;;;;6278528;22;20404;-82
2021/05/29 05:36:09;;;;;;;5.53;5.03;;;;;;;;;;6273097;22;20380;-82
2021/05/29 05:38:37;;;;;;;5.00;4.37;;;;;;;;;;6273917;22;20404;-81
2021/05/29 05:41:04;;;;;;;5.80;5.20;;;;;;;;;;6274564;22;20900;-82
2021/05/29 05:43:31;;;;;;;5.60;5.10;;;;;;;;;;6275695;22;20402;-79
2021/05/29 05:45:58;;;;;;;12.33;4.90;;;;;;;;;;6275079;22;20400;-81
2021/05/29 05:48:25;;;;;;;5.50;5.00;;;;;;;;;;6276527;22;20897;-84
2021/05/29 05:50:53;;;;;;;5.50;5.00;;;;;;;;;;6279394;22;20448;-82
2021/05/29 05:53:20;;;;;;;8.30;5.50;;;;;;;;;;6248135;22;20936;-82
2021/05/29 05:55:51;;;;;;;7.83;5.40;;;;;;;;;;6274027;22;20431;-83
2021/05/29 05:58:18;;;;;;;6.83;5.90;;;;;;;;;;6273590;22;20407;-83
2021/05/29 06:00:45;;;;;;;5.63;5.07;;;;;;;;;;6275467;22;20483;-84
2021/05/29 06:03:11;;;;;;;6.07;5.47;;;;;;;;;;6273769;22;20721;-80
2021/05/29 06:05:38;;;;;;;7.90;5.93;;;;;;;;;;6275635;22;20400;-82
2021/05/29 06:08:05;;;;;;;6.27;5.77;;;;;;;;;;6273544;22;20410;-84
2021/05/29 06:10:32;;;;;;;6.17;5.27;;;;;;;;;;6272032;22;20474;-81
2021/05/29 06:13:00;;;;;;;6.50;5.90;;;;;;;;;;6272111;22;20568;-80
2021/05/29 06:18:23;;;;;;;6.30;5.80;;;;;;;;;;6272115;22;20392;-89
2021/05/29 06:20:50;;;;;;;6.13;5.10;;;;;;;;;;6276247;22;20454;-85
2021/05/29 06:23:17;;;;;;;5.77;5.27;;;;;;;;;;6273509;22;20392;-84
2021/05/29 06:25:44;;;;;;;6.90;6.20;;;;;;;;;;6272692;22;20400;-87
2021/05/29 06:28:12;;;;;;;6.40;5.10;;;;;;;;;;6274033;22;20450;-82
2021/05/29 06:30:39;;;;;;;5.40;4.90;;;;;;;;;;6275257;22;20819;-83
2021/05/29 06:33:06;;;;;;;5.70;4.80;;;;;;;;;;6274165;22;20736;-85
2021/05/29 06:35:33;;;;;;;5.53;5.03;;;;;;;;;;6276363;22;20404;-85
2021/05/29 06:38:00;;;;;;;5.10;4.60;;;;;;;;;;6276912;22;20404;-84
2021/05/29 06:40:27;;;;;;;4.07;3.73;;;;;;;;;;6276454;22;20456;-83
2021/05/29 06:42:54;;;;;;;4.77;4.30;;;;;;;;;;6276482;22;20428;-81
2021/05/29 06:45:22;;;;;;;3.90;3.60;;;;;;;;;;6275219;22;20423;-81
2021/05/29 06:47:49;;;;;;;4.27;3.87;;;;;;;;;;6273166;22;20780;-80
2021/05/29 06:50:18;;;;;;;5.03;4.53;;;;;;;;;;6271282;22;20948;-83
2021/05/29 06:52:48;;;;;;;5.63;4.53;;;;;;;;;;6248772;22;20935;-82
2021/05/29 07:00:39;;;;;;;4.43;4.03;;;;;;;;;;6275129;22;20481;-83
2021/05/29 07:03:06;;;;;;;5.00;3.37;;;;;;;;;;6250691;22;20408;-78
2021/05/29 07:05:32;;;;;;;3.57;3.27;;;;;;;;;;6275803;22;20418;-79
2021/05/29 07:07:59;;;;;;;4.10;3.80;;;;;;;;;;6274737;22;20412;-79
2021/05/29 07:10:26;;;;;;;3.53;3.23;;;;;;;;;;6271842;22;20426;-78
2021/05/29 07:12:53;;;;;;;4.90;4.50;;;;;;;;;;6273489;22;20483;-79
2021/05/29 07:15:20;;;;;;;4.80;4.00;;;;;;;;;;6273402;22;20400;-78
2021/05/29 07:17:53;;;;;;;4.50;4.10;;;;;;;;;;6273013;22;20479;-77
2021/05/29 07:20:20;;;;;;;4.60;3.97;;;;;;;;;;6272505;22;20505;-80
2021/05/29 07:22:47;;;;;;;6.00;4.30;;;;;;;;;;6273376;22;20396;-82
2021/05/29 07:25:14;;;;;;;4.23;3.60;;;;;;;;;;6272772;22;20708;-80
2021/05/29 07:27:41;;;;;;;4.70;4.30;;;;;;;;;;6272217;22;20407;-78
2021/05/29 07:30:08;;;;;;;5.00;4.23;;;;;;;;;;6273848;22;20424;-81
2021/05/29 07:32:35;;;;;;;4.37;3.97;;;;;;;;;;6272785;22;20406;-78
2021/05/29 07:35:02;;;;;;;4.53;4.13;;;;;;;;;;6275081;22;20710;-78
2021/05/29 07:37:29;;;;;;;4.30;4.00;;;;;;;;;;6273455;22;20881;-76
2021/05/29 07:39:56;;;;;;;4.37;3.80;;;;;;;;;;6272481;22;20447;-78
2021/05/29 07:42:23;;;;;;;6.37;3.83;;;;;;;;;;6272002;22;20557;-81
2021/05/29 07:44:50;;;;;;;11.33;3.93;;;;;;;;;;6274056;22;20396;-84
2021/05/29 07:47:18;;;;;;;4.63;4.20;;;;;;;;;;6273046;22;20767;-79
2021/05/29 07:49:45;;;;;;;6.27;3.80;;;;;;;;;;6274067;22;20420;-80
2021/05/29 07:52:13;;;;;;;4.40;4.00;;;;;;;;;;6275461;22;20434;-80
2021/05/29 07:54:40;;;;;;;3.83;3.53;;;;;;;;;;6271260;22;20415;-82
2021/05/29 07:57:09;;;;;;;4.13;3.37;;;;;;;;;;6245253;22;20400;-88
2021/05/29 07:59:36;;;;;;;5.07;3.53;;;;;;;;;;6245614;22;20505;-82
2021/05/29 08:02:03;;;;;;;4.30;3.23;;;;;;;;;;6273442;22;20446;-83
2021/05/29 08:04:30;;;;;;;5.57;3.27;;;;;;;;;;6274117;22;20396;-86
2021/05/29 08:06:57;;;;;;;4.50;3.17;;;;;;;;;;6273929;22;20478;-81
2021/05/29 08:09:25;;;;;;;3.50;3.03;;;;;;;;;;6272086;22;20443;-82
2021/05/29 08:11:52;;;;;;;3.80;3.50;;;;;;;;;;6271215;22;20486;-81
2021/05/29 08:14:19;;;;;;;3.50;3.20;;;;;;;;;;6272519;22;20431;-83
2021/05/29 08:16:46;;;;;;;3.23;2.70;;;;;;;;;;6272931;22;20507;-82
2021/05/29 08:19:13;;;;;;;3.77;3.40;;;;;;;;;;6271358;22;20416;-83
2021/05/29 08:21:40;;;;;;;2.77;2.57;;;;;;;;;;6247118;22;20447;-84
2021/05/29 08:24:08;;;;;;;4.60;2.83;;;;;;;;;;6268707;22;20423;-83
2021/05/29 08:26:35;;;;;;;3.60;2.93;;;;;;;;;;6272661;22;20439;-83
2021/05/29 08:29:02;;;;;;;3.20;2.87;;;;;;;;;;6273541;22;20420;-84
2021/05/29 08:31:29;;;;;;;3.20;2.23;;;;;;;;;;6272614;22;20483;-85
2021/05/29 08:33:56;;;;;;;2.40;2.20;;;;;;;;;;6274256;22;20404;-85
2021/05/29 08:36:23;;;;;;;2.60;2.30;;;;;;;;;;6272492;22;20479;-84
2021/05/29 08:38:49;;;;;;;2.30;2.10;;;;;;;;;;6272018;22;20775;-82
2021/05/29 08:41:17;;;;;;;2.40;2.17;;;;;;;;;;6271976;22;20765;-82
2021/05/29 08:43:45;;;;;;;7.37;3.30;;;;;;;;;;6272976;22;20408;-84
2021/05/29 08:46:12;;;;;;;2.70;2.50;;;;;;;;;;6273446;22;20403;-86
2021/05/29 08:48:39;;;;;;;3.03;2.13;;;;;;;;;;6273486;22;20428;-84
2021/05/29 08:51:13;;;;;;;2.17;2.00;;;;;;;;;;6275962;22;20869;-81
2021/05/29 08:53:40;;;;;;;2.43;2.17;;;;;;;;;;6275042;22;20403;-79
2021/05/29 08:56:07;;;;;;;3.03;2.23;;;;;;;;;;6276722;22;20519;-79
2021/05/29 08:58:34;;;;;;;3.70;2.30;;;;;;;;;;6274735;22;20416;-80
2021/05/29 09:01:02;;;;;;;2.70;2.00;;;;;;;;;;6271161;22;20822;-80
2021/05/29 09:03:44;;;;;;;3.03;2.23;;;;;;;;;;6272224;22;20407;-80
2021/05/29 09:06:12;;;;;;;2.60;2.40;;;;;;;;;;6249515;22;20431;-81
2021/05/29 09:08:48;;;;;;;4.10;2.33;;;;;;;;;;6274009;22;20427;-84
2021/05/29 09:11:16;;;;;;;2.97;2.50;;;;;;;;;;6273473;22;20431;-84
2021/05/29 09:13:42;;;;;;;2.50;1.77;;;;;;;;;;6270472;22;20410;-83
2021/05/29 09:16:10;;;;;;;3.27;2.53;;;;;;;;;;6272058;22;20785;-82
2021/05/29 09:18:39;;;;;;;3.10;2.50;;;;;;;;;;6271388;22;20497;-84
2021/05/29 09:21:21;;;;;;;3.17;2.17;;;;;;;;;;6269858;22;20833;-80
2021/05/29 09:23:48;;;;;;;3.33;2.40;;;;;;;;;;6266018;22;20850;-81
2021/05/29 09:26:15;;;;;;;2.43;2.23;;;;;;;;;;6268924;22;20412;-82
2021/05/29 09:28:43;;;;;;;4.33;2.57;;;;;;;;;;6270584;22;20945;-83
2021/05/29 09:31:14;;;;;;;3.70;2.53;;;;;;;;;;6242003;22;20408;-84
2021/05/29 09:33:41;;;;;;;2.57;2.37;;;;;;;;;;6270705;22;20901;-83
2021/05/29 09:36:10;;;;;;;3.57;3.07;;;;;;;;;;6243075;22;20496;-86
2021/05/29 09:38:38;;;;;;;3.13;2.40;;;;;;;;;;6265143;22;20937;-83
2021/05/29 09:41:07;;;;;;;2.77;2.57;;;;;;;;;;6268198;22;20444;-81
2021/05/29 09:43:48;;;;;;;4.80;2.53;;;;;;;;;;6241648;22;20431;-85
2021/05/29 09:46:16;;;;;;;3.10;2.80;;;;;;;;;;6245593;22;20430;-85
2021/05/29 09:48:49;;;;;;;4.20;3.10;;;;;;;;;;6267734;22;20426;-83
2021/05/29 09:51:16;;;;;;;4.67;2.50;;;;;;;;;;6267812;22;20431;-84
2021/05/29 09:53:43;;;;;;;3.50;2.90;;;;;;;;;;6266820;22;20404;-82
2021/05/29 09:56:23;;;;;;;3.47;2.40;;;;;;;;;;6241832;22;20686;-82
2021/05/29 09:58:53;;;;;;;3.37;3.07;;;;;;;;;;6268769;22;20499;-86
2021/05/29 10:01:35;;;;;;;3.00;2.70;;;;;;;;;;6267846;22;20449;-84
2021/05/29 10:04:02;;;;;;;3.00;2.77;;;;;;;;;;6247782;22;20392;-83
2021/05/29 10:06:29;;;;;;;3.87;2.83;;;;;;;;;;6269029;22;21184;-84
2021/05/29 10:08:56;;;;;;;2.40;2.20;;;;;;;;;;6269139;22;20431;-83
2021/05/29 10:11:23;;;;;;;5.57;4.00;;;;;;;;;;6270296;22;20410;-83
2021/05/29 10:13:50;;;;;;;2.33;2.07;;;;;;;;;;6270731;22;20404;-83
2021/05/29 10:16:18;;;;;;;3.77;1.93;;;;;;;;;;6270085;22;20462;-81
2021/05/29 10:18:48;;;;;;;3.20;2.33;;;;;;;;;;6269007;22;20503;-82
2021/05/29 10:21:17;;;;;;;3.93;2.20;;;;;;;;;;6244194;22;20442;-81
2021/05/29 10:23:46;;;;;;;3.03;2.43;;;;;;;;;;6268821;22;20767;-85
2021/05/29 10:26:14;;;;;;;4.83;2.10;;;;;;;;;;6274729;22;20432;-84
2021/05/29 10:28:41;;;;;;;2.87;2.00;;;;;;;;;;6272248;22;20420;-85
2021/05/29 10:31:08;;;;;;;3.30;2.00;;;;;;;;;;6273208;22;20400;-85
2021/05/29 10:33:45;;;;;;;6.13;2.77;;;;;;;;;;6250127;22;20495;-85
2021/05/29 10:36:35;;;;;;;3.13;2.10;;;;;;;;;;6272212;22;20399;-85
2021/05/29 10:39:04;;;;;;;2.90;1.97;;;;;;;;;;6272988;22;20428;-86
2021/05/29 10:41:45;;;;;;;2.17;1.90;;;;;;;;;;6269349;22;20470;-82
2021/05/29 10:44:30;;;;;;;2.80;2.13;;;;;;;;;;6261937;22;20445;-85
2021/05/29 10:47:11;;;;;;;3.37;2.30;;;;;;;;;;6277047;22;20450;-85
2021/05/29 10:49:56;;;;;;;4.30;2.63;;;;;;;;;;6250819;22;20434;-82
2021/05/29 10:52:40;;;;;;;2.53;2.13;;;;;;;;;;6253117;22;20481;-85
2021/05/29 10:55:20;;;;;;;4.00;2.50;;;;;;;;;;6275103;22;20410;-84
2021/05/29 10:57:51;;;;;;;2.70;2.20;;;;;;;;;;6274218;22;20853;-84
2021/05/29 11:00:33;;;;;;;4.17;2.40;;;;;;;;;;6275311;22;20450;-82
2021/05/29 11:03:14;;;;;;;5.03;2.20;;;;;;;;;;6244967;22;20404;-83
2021/05/29 11:05:41;;;;;;;2.77;2.50;;;;;;;;;;6253836;22;20411;-83
2021/05/29 11:08:22;;;;;;;3.60;2.17;;;;;;;;;;6277215;22;20929;-85
2021/05/29 11:10:50;;;;;;;3.40;2.70;;;;;;;;;;6246979;22;20406;-85
2021/05/29 11:13:17;;;;;;;3.33;2.37;;;;;;;;;;6272163;22;20400;-83
2021/05/29 11:15:59;;;;;;;3.73;2.93;;;;;;;;;;6273694;22;20510;-83
2021/05/29 11:18:26;;;;;;;2.47;2.10;;;;;;;;;;6250186;22;20753;-82
2021/05/29 11:21:08;;;;;;;10.87;3.13;;;;;;;;;;6273190;22;20990;-83
2021/05/29 11:23:36;;;;;;;3.13;2.83;;;;;;;;;;6249348;22;20396;-84
2021/05/29 11:26:06;;;;;;;4.50;2.57;;;;;;;;;;6269573;22;20405;-84
2021/05/29 11:28:35;;;;;;;4.20;3.00;;;;;;;;;;6275364;22;20412;-83
2021/05/29 11:31:02;;;;;;;2.53;2.33;;;;;;;;;;6276177;22;20494;-83
2021/05/29 11:33:29;;;;;;;6.20;2.43;;;;;;;;;;6274844;22;20824;-84
2021/05/29 11:35:56;;;;;;;4.00;2.57;;;;;;;;;;6273096;22;20837;-82
2021/05/29 11:38:25;;;;;;;5.83;2.40;;;;;;;;;;6269953;22;20396;-83
2021/05/29 11:40:55;;;;;;;4.60;3.10;;;;;;;;;;6273945;22;20566;-84
2021/05/29 11:43:33;;;;;;;3.00;2.67;;;;;;;;;;6268229;22;21103;-84
2021/05/29 11:46:00;;;;;;;5.23;2.53;;;;;;;;;;6241153;22;20899;-83
2021/05/29 11:48:34;;;;;;;4.20;2.60;;;;;;;;;;6246100;22;20785;-83
2021/05/29 11:53:44;;;;;;;3.23;2.80;;;;;;;;;;6245223;22;20388;-82
2021/05/29 11:56:10;;;;;;;3.60;3.30;;;;;;;;;;6265551;22;20482;-85
2021/05/29 11:58:43;;;;;;;3.10;2.83;;;;;;;;;;6276294;22;20528;-84
2021/05/29 12:01:09;;;;;;;3.50;2.67;;;;;;;;;;6246307;22;20444;-80
2021/05/29 12:03:38;;;;;;;2.53;2.33;;;;;;;;;;6267843;22;20404;-86
2021/05/29 12:06:05;;;;;;;2.83;2.63;;;;;;;;;;6273066;22;20405;-85
2021/05/29 12:08:32;;;;;;;3.07;2.63;;;;;;;;;;6273408;22;20419;-84
2021/05/29 12:10:58;;;;;;;2.70;2.50;;;;;;;;;;6268094;22;20396;-86
2021/05/29 12:13:26;;;;;;;4.33;3.10;;;;;;;;;;6275581;22;20402;-84
2021/05/29 12:15:56;;;;;;;3.70;3.40;;;;;;;;;;6271527;22;20406;-87
2021/05/29 12:18:24;;;;;;;3.60;3.30;;;;;;;;;;6267043;22;20734;-84
2021/05/29 12:20:54;;;;;;;3.70;3.27;;;;;;;;;;6272228;22;20504;-83
2021/05/29 12:23:21;;;;;;;3.20;2.90;;;;;;;;;;6274287;22;20407;-85
2021/05/29 12:25:48;;;;;;;3.80;3.23;;;;;;;;;;6269887;22;20483;-85
2021/05/29 12:28:15;;;;;;;3.43;3.13;;;;;;;;;;6271087;22;20408;-83
2021/05/29 12:30:48;;;;;;;4.07;3.67;;;;;;;;;;6272517;22;20878;-84
2021/05/29 12:33:24;;;;;;;3.73;3.27;;;;;;;;;;6272126;22;20400;-85
2021/05/29 12:36:04;;;;;;;4.20;3.80;;;;;;;;;;6272392;22;20426;-88
2021/05/29 12:38:31;;;;;;;4.50;4.07;;;;;;;;;;6274265;22;20455;-83
2021/05/29 12:41:00;;;;;;;4.23;3.83;;;;;;;;;;6274038;22;20451;-85
2021/05/29 12:43:27;;;;;;;4.93;3.73;;;;;;;;;;6273855;22;20426;-83
2021/05/29 12:45:55;;;;;;;4.77;4.30;;;;;;;;;;6271960;22;20400;-83
2021/05/29 12:48:50;;;;;;;4.50;3.87;;;;;;;;;;6265721;22;20415;-83
2021/05/29 12:51:29;;;;;;;5.20;3.67;;;;;;;;;;6235419;22;20432;-84
2021/05/29 12:53:56;;;;;;;7.00;4.33;;;;;;;;;;6273150;22;20399;-83
2021/05/29 12:56:48;;;;;;;5.27;4.43;;;;;;;;;;6279247;22;20445;-82
2021/05/29 12:59:20;;;;;;;5.17;4.67;;;;;;;;;;6119278;23;20440;-83
2021/05/29 13:02:01;;;;;;;6.90;5.00;;;;;;;;;;6191113;22;20448;-84
2021/05/29 13:10:01;;;;;;;6.93;5.60;;;;;;;;;;6249422;22;20408;-83
2021/05/29 13:12:28;;;;;;;5.60;5.13;;;;;;;;;;6275732;22;20414;-83
2021/05/29 13:14:55;;;;;;;6.17;5.57;;;;;;;;;;6269625;22;20396;-83
2021/05/29 13:17:23;;;;;;;7.83;6.40;;;;;;;;;;6276617;22;20399;-83
2021/05/29 13:19:54;;;;;;;6.47;5.93;;;;;;;;;;6275476;22;20486;-83
2021/05/29 13:22:25;;;;;;;8.10;5.70;;;;;;;;;;6267646;22;20392;-83
2021/05/29 13:24:56;;;;;;;6.90;6.30;;;;;;;;;;6271497;22;20935;-83
2021/05/29 13:27:38;;;;;;;5.10;4.70;;;;;;;;;;6244035;22;20397;-84
2021/05/29 13:30:07;;;;;;;7.80;5.73;;;;;;;;;;6248516;22;20789;-84
2021/05/29 13:32:34;;;;;;;7.27;5.13;;;;;;;;;;6267170;22;20415;-84
2021/05/29 13:35:02;;;;;;;6.60;5.60;;;;;;;;;;6271056;22;20404;-83
2021/05/29 13:37:33;;;;;;;6.60;6.00;;;;;;;;;;6275778;22;20400;-83
2021/05/29 13:40:02;;;;;;;7.47;6.77;;;;;;;;;;6276195;22;20449;-83
2021/05/29 13:42:31;;;;;;;6.57;5.97;;;;;;;;;;6269672;22;20869;-83
2021/05/29 13:45:00;;;;;;;6.83;6.23;;;;;;;;;;6273364;22;20443;-84
2021/05/29 13:47:27;;;;;;;7.17;6.47;;;;;;;;;;6276200;22;20400;-84
2021/05/29 13:49:53;;;;;;;6.83;6.23;;;;;;;;;;6269524;22;20474;-83
2021/05/29 13:52:23;;;;;;;5.70;5.20;;;;;;;;;;6268265;22;20477;-83
2021/05/29 13:54:53;;;;;;;5.70;5.20;;;;;;;;;;6278379;22;20396;-83
2021/05/29 13:57:20;;;;;;;6.60;6.10;;;;;;;;;;6276134;22;20403;-83
2021/05/29 13:59:47;;;;;;;7.47;6.83;;;;;;;;;;6278434;22;20557;-83
2021/05/29 14:02:14;;;;;;;7.03;6.43;;;;;;;;;;6276252;22;20746;-84
2021/05/29 14:04:41;;;;;;;8.73;8.00;;;;;;;;;;6270009;22;20431;-84
2021/05/29 14:07:09;;;;;;;6.93;6.30;;;;;;;;;;6274449;22;20406;-83
2021/05/29 14:10:04;;;;;;;9.10;6.10;;;;;;;;;;6270616;22;21038;-86
2021/05/29 14:12:54;;;;;;;6.60;6.00;;;;;;;;;;6243952;22;20404;-83
2021/05/29 14:15:41;;;;;;;7.17;6.57;;;;;;;;;;6211675;22;20441;-84
2021/05/29 14:18:17;;;;;;;7.10;6.50;;;;;;;;;;6234107;22;20783;-84
2021/05/29 14:21:24;;;;;;;7.27;6.57;;;;;;;;;;6278452;22;20436;-84
2021/05/29 14:23:57;;;;;;;6.90;6.30;;;;;;;;;;6255603;22;20395;-83
2021/05/29 14:26:29;;;;;;;6.63;6.03;;;;;;;;;;6267430;22;20905;-84
2021/05/29 14:28:58;;;;;;;6.37;5.77;;;;;;;;;;6273395;22;20421;-84
2021/05/29 14:31:28;;;;;;;7.17;6.47;;;;;;;;;;6273943;22;20404;-84
2021/05/29 14:37:17;;;;;;;5.60;4.97;;;;;;;;;;6095826;23;20405;-83
2021/05/29 14:42:57;;;;;;;7.57;5.60;;;;;;;;;;6156764;23;20398;-83
2021/05/29 14:45:23;;;;;;;5.90;5.40;;;;;;;;;;6175035;23;20402;-83
2021/05/29 14:47:59;;;;;;;5.60;5.10;;;;;;;;;;6178129;23;20399;-83
2021/05/29 14:51:15;;;;;;;5.73;5.17;;;;;;;;;;6179141;23;20426;-83
2021/05/29 14:54:02;;;;;;;5.23;4.73;;;;;;;;;;6153626;23;20395;-85
2021/05/29 14:56:32;;;;;;;7.47;5.17;;;;;;;;;;6180654;23;20901;-83
2021/05/29 14:59:01;;;;;;;5.00;4.60;;;;;;;;;;6151864;23;20533;-83
2021/05/29 15:01:29;;;;;;;7.20;5.80;;;;;;;;;;6176597;22;20860;-84
2021/05/29 15:13:41;;;;;;;5.37;4.87;;;;;;;;;;5944787;24;20500;-84
2021/05/29 15:16:12;;;;;;;6.27;5.70;;;;;;;;;;6051748;23;21015;-84
2021/05/29 15:21:31;;;;;;;6.27;5.30;;;;;;;;;;6184903;22;20449;-84
2021/05/29 15:24:02;;;;;;;5.50;4.97;;;;;;;;;;6265489;22;20396;-84
2021/05/29 15:26:38;;;;;;;7.80;4.77;;;;;;;;;;6244808;22;20422;-84
2021/05/29 15:29:06;;;;;;;5.50;5.00;;;;;;;;;;6268347;22;20443;-84
2021/05/29 15:31:34;;;;;;;7.43;5.37;;;;;;;;;;6268276;22;20404;-84